sensor_id;sensor_type;location;lat;lon;timestamp;pressure;altitude;pressure_sealevel;temperature;humidity
12879;BME280;20617;49.476;10.986;2023-09-19T00:01:41;97796.03;;;18.44;100.00
12879;BME280;20617;49.476;10.986;2023-09-19T00:03:49;97789.56;;;18.48;100.00
12879;BME280;20617;49.476;10.986;2023-09-19T00:05:55;97794.94;;;18.46;100.00
12879;BME280;20617;49.476;10.986;2023-09-19T00:08:03;97783.13;;;18.41;100.00
12879;BME280;20617;49.476;10.986;2023-09-19T00:10:08;97782.28;;;18.40;100.00
12879;BME280;20617;49.476;10.986;2023-09-19T00:12:14;97794.50;;;18.41;100.00
12879;BME280;20617;49.476;10.986;2023-09-19T00:14:19;97793.53;;;18.42;100.00
12879;BME280;20617;49.476;10.986;2023-09-19T00:16:26;97790.06;;;18.42;100.00
12879;BME280;20617;49.476;10.986;2023-09-19T00:18:29;97792.00;;;18.40;100.00
12879;BME280;20617;49.476;10.986;2023-09-19T00:20:39;97801.69;;;18.39;100.00
12879;BME280;20617;49.476;10.986;2023-09-19T00:22:42;97805.41;;;18.37;100.00
12879;BME280;20617;49.476;10.986;2023-09-19T00:24:47;97813.31;;;18.37;100.00
12879;BME280;20617;49.476;10.986;2023-09-19T00:26:53;97804.44;;;18.38;100.00
12879;BME280;20617;49.476;10.986;2023-09-19T00:28:58;97800.97;;;18.37;100.00
12879;BME280;20617;49.476;10.986;2023-09-19T00:31:10;97804.59;;;18.36;100.00
12879;BME280;20617;49.476;10.986;2023-09-19T00:33:16;97811.41;;;18.39;100.00
12879;BME280;20617;49.476;10.986;2023-09-19T00:35:22;97818.34;;;18.40;100.00
12879;BME280;20617;49.476;10.986;2023-09-19T00:37:31;97814.16;;;18.37;100.00
12879;BME280;20617;49.476;10.986;2023-09-19T00:39:37;97817.88;;;18.35;100.00
12879;BME280;20617;49.476;10.986;2023-09-19T00:41:39;97811.66;;;18.36;100.00
12879;BME280;20617;49.476;10.986;2023-09-19T00:43:47;97809.03;;;18.36;100.00
12879;BME280;20617;49.476;10.986;2023-09-19T00:45:55;97810.09;;;18.33;100.00
12879;BME280;20617;49.476;10.986;2023-09-19T00:48:03;97813.69;;;18.32;100.00
12879;BME280;20617;49.476;10.986;2023-09-19T00:50:15;97820.75;;;18.31;100.00
12879;BME280;20617;49.476;10.986;2023-09-19T00:52:19;97814.91;;;18.28;100.00
12879;BME280;20617;49.476;10.986;2023-09-19T00:54:28;97827.09;;;18.29;100.00
12879;BME280;20617;49.476;10.986;2023-09-19T00:56:37;97823.78;;;18.27;100.00
12879;BME280;20617;49.476;10.986;2023-09-19T00:58:43;97827.34;;;18.26;100.00
12879;BME280;20617;49.476;10.986;2023-09-19T01:00:49;97823.16;;;18.23;100.00
12879;BME280;20617;49.476;10.986;2023-09-19T01:02:55;97828.31;;;18.25;100.00
12879;BME280;20617;49.476;10.986;2023-09-19T01:05:01;97832.03;;;18.22;100.00
12879;BME280;20617;49.476;10.986;2023-09-19T01:07:06;97840.66;;;18.24;100.00
12879;BME280;20617;49.476;10.986;2023-09-19T01:09:12;97829.31;;;18.24;100.00
12879;BME280;20617;49.476;10.986;2023-09-19T01:11:28;97830.38;;;18.21;100.00
12879;BME280;20617;49.476;10.986;2023-09-19T01:13:47;97829.50;;;18.21;100.00
12879;BME280;20617;49.476;10.986;2023-09-19T01:15:59;97831.47;;;18.19;100.00
12879;BME280;20617;49.476;10.986;2023-09-19T01:18:18;97833.38;;;18.17;100.00
12879;BME280;20617;49.476;10.986;2023-09-19T01:20:33;97837.22;;;18.13;100.00
12879;BME280;20617;49.476;10.986;2023-09-19T01:22:48;97835.41;;;18.13;100.00
12879;BME280;20617;49.476;10.986;2023-09-19T01:25:26;97842.25;;;18.16;100.00
12879;BME280;20617;49.476;10.986;2023-09-19T01:30:20;97844.75;;;18.17;100.00
12879;BME280;20617;49.476;10.986;2023-09-19T01:32:26;97847.13;;;18.20;100.00
12879;BME280;20617;49.476;10.986;2023-09-19T01:34:44;97844.38;;;18.22;100.00
12879;BME280;20617;49.476;10.986;2023-09-19T01:36:50;97841.50;;;18.25;100.00
12879;BME280;20617;49.476;10.986;2023-09-19T01:38:57;97844.97;;;18.25;100.00
12879;BME280;20617;49.476;10.986;2023-09-19T01:41:11;97846.88;;;18.23;100.00
12879;BME280;20617;49.476;10.986;2023-09-19T01:43:23;97846.88;;;18.23;100.00
12879;BME280;20617;49.476;10.986;2023-09-19T01:45:43;97848.44;;;18.26;100.00
12879;BME280;20617;49.476;10.986;2023-09-19T01:47:52;97850.00;;;18.28;100.00
12879;BME280;20617;49.476;10.986;2023-09-19T01:50:10;97843.41;;;18.34;100.00
12879;BME280;20617;49.476;10.986;2023-09-19T01:52:20;97841.09;;;18.41;100.00
12879;BME280;20617;49.476;10.986;2023-09-19T01:54:31;97837.97;;;18.47;100.00
12879;BME280;20617;49.476;10.986;2023-09-19T01:56:45;97843.59;;;18.53;100.00
12879;BME280;20617;49.476;10.986;2023-09-19T01:58:56;97847.53;;;18.59;100.00
12879;BME280;20617;49.476;10.986;2023-09-19T02:01:11;97849.91;;;18.62;100.00
12879;BME280;20617;49.476;10.986;2023-09-19T02:03:21;97850.50;;;18.66;100.00
12879;BME280;20617;49.476;10.986;2023-09-19T02:05:27;97853.84;;;18.68;100.00
12879;BME280;20617;49.476;10.986;2023-09-19T02:07:34;97849.16;;;18.71;100.00
12879;BME280;20617;49.476;10.986;2023-09-19T02:09:40;97845.53;;;18.72;100.00
12879;BME280;20617;49.476;10.986;2023-09-19T02:11:44;97849.16;;;18.71;100.00
12879;BME280;20617;49.476;10.986;2023-09-19T02:13:47;97847.97;;;18.75;100.00
12879;BME280;20617;49.476;10.986;2023-09-19T02:15:55;97846.78;;;18.80;100.00
12879;BME280;20617;49.476;10.986;2023-09-19T02:18:03;97846.50;;;18.83;100.00
12879;BME280;20617;49.476;10.986;2023-09-19T02:20:10;97843.72;;;18.84;100.00
12879;BME280;20617;49.476;10.986;2023-09-19T02:22:16;97851.41;;;18.87;100.00
12879;BME280;20617;49.476;10.986;2023-09-19T02:24:21;97849.72;;;18.86;100.00
12879;BME280;20617;49.476;10.986;2023-09-19T02:26:29;97852.38;;;18.86;100.00
12879;BME280;20617;49.476;10.986;2023-09-19T02:28:34;97849.59;;;18.88;100.00
12879;BME280;20617;49.476;10.986;2023-09-19T02:30:39;97859.31;;;18.87;100.00
12879;BME280;20617;49.476;10.986;2023-09-19T02:32:42;97863.75;;;18.87;100.00
12879;BME280;20617;49.476;10.986;2023-09-19T02:34:51;97861.94;;;18.87;100.00
12879;BME280;20617;49.476;10.986;2023-09-19T02:36:54;97857.63;;;18.86;100.00
12879;BME280;20617;49.476;10.986;2023-09-19T02:39:00;97868.69;;;18.80;100.00
12879;BME280;20617;49.476;10.986;2023-09-19T02:41:07;97860.91;;;18.78;100.00
12879;BME280;20617;49.476;10.986;2023-09-19T02:43:12;97860.91;;;18.78;100.00
12879;BME280;20617;49.476;10.986;2023-09-19T02:45:19;97869.06;;;18.64;100.00
12879;BME280;20617;49.476;10.986;2023-09-19T02:47:24;97872.69;;;18.52;100.00
12879;BME280;20617;49.476;10.986;2023-09-19T02:49:30;97880.75;;;18.39;100.00
12879;BME280;20617;49.476;10.986;2023-09-19T02:51:39;97876.94;;;18.32;100.00
12879;BME280;20617;49.476;10.986;2023-09-19T02:53:42;97879.13;;;18.27;100.00
12879;BME280;20617;49.476;10.986;2023-09-19T02:55:49;97890.25;;;18.19;100.00
12879;BME280;20617;49.476;10.986;2023-09-19T02:57:56;97886.31;;;18.14;100.00
12879;BME280;20617;49.476;10.986;2023-09-19T03:00:03;97892.53;;;18.01;100.00
12879;BME280;20617;49.476;10.986;2023-09-19T03:02:10;97895.28;;;18.00;100.00
12879;BME280;20617;49.476;10.986;2023-09-19T03:04:15;97902.34;;;17.88;100.00
12879;BME280;20617;49.476;10.986;2023-09-19T03:06:23;97908.22;;;17.80;100.00
12879;BME280;20617;49.476;10.986;2023-09-19T03:08:31;97909.16;;;17.79;100.00
12879;BME280;20617;49.476;10.986;2023-09-19T03:10:38;97911.56;;;17.82;100.00
12879;BME280;20617;49.476;10.986;2023-09-19T03:12:43;97915.88;;;17.83;100.00
12879;BME280;20617;49.476;10.986;2023-09-19T03:14:48;97914.41;;;17.79;100.00
12879;BME280;20617;49.476;10.986;2023-09-19T03:16:54;97917.25;;;17.76;100.00
12879;BME280;20617;49.476;10.986;2023-09-19T03:18:58;97924.66;;;17.71;100.00
12879;BME280;20617;49.476;10.986;2023-09-19T03:21:06;97922.66;;;17.75;100.00
12879;BME280;20617;49.476;10.986;2023-09-19T03:23:08;97924.19;;;17.66;100.00
12879;BME280;20617;49.476;10.986;2023-09-19T03:25:18;97921.44;;;17.68;100.00
12879;BME280;20617;49.476;10.986;2023-09-19T03:27:26;97928.84;;;17.62;100.00
12879;BME280;20617;49.476;10.986;2023-09-19T03:29:31;97930.13;;;17.57;100.00
12879;BME280;20617;49.476;10.986;2023-09-19T03:31:37;97922.47;;;17.54;100.00
12879;BME280;20617;49.476;10.986;2023-09-19T03:33:43;97926.78;;;17.43;100.00
12879;BME280;20617;49.476;10.986;2023-09-19T03:35:51;97927.00;;;17.40;100.00
12879;BME280;20617;49.476;10.986;2023-09-19T03:37:56;97923.53;;;17.40;100.00
12879;BME280;20617;49.476;10.986;2023-09-19T03:40:02;97927.69;;;17.31;100.00
12879;BME280;20617;49.476;10.986;2023-09-19T03:42:12;97936.19;;;17.35;100.00
12879;BME280;20617;49.476;10.986;2023-09-19T03:44:17;97939.56;;;17.37;100.00
12879;BME280;20617;49.476;10.986;2023-09-19T03:46:22;97941.31;;;17.36;100.00
12879;BME280;20617;49.476;10.986;2023-09-19T03:48:27;97937.03;;;17.35;100.00
12879;BME280;20617;49.476;10.986;2023-09-19T03:50:33;97940.38;;;17.37;100.00
12879;BME280;20617;49.476;10.986;2023-09-19T03:52:38;97941.13;;;17.39;100.00
12879;BME280;20617;49.476;10.986;2023-09-19T03:54:44;97929.78;;;17.50;100.00
12879;BME280;20617;49.476;10.986;2023-09-19T03:56:48;97931.00;;;17.57;100.00
12879;BME280;20617;49.476;10.986;2023-09-19T03:58:55;97934.09;;;17.62;100.00
12879;BME280;20617;49.476;10.986;2023-09-19T04:01:01;97945.00;;;17.58;100.00
12879;BME280;20617;49.476;10.986;2023-09-19T04:03:06;97942.84;;;17.52;100.00
12879;BME280;20617;49.476;10.986;2023-09-19T04:05:13;97942.09;;;17.50;100.00
12879;BME280;20617;49.476;10.986;2023-09-19T04:07:16;97950.22;;;17.47;100.00
12879;BME280;20617;49.476;10.986;2023-09-19T04:09:21;97942.94;;;17.50;100.00
12879;BME280;20617;49.476;10.986;2023-09-19T04:11:26;97941.38;;;17.48;100.00
12879;BME280;20617;49.476;10.986;2023-09-19T04:13:31;97947.34;;;17.50;100.00
12879;BME280;20617;49.476;10.986;2023-09-19T04:15:38;97949.75;;;17.53;100.00
12879;BME280;20617;49.476;10.986;2023-09-19T04:17:44;97957.06;;;17.49;100.00
12879;BME280;20617;49.476;10.986;2023-09-19T04:19:48;97964.34;;;17.46;100.00
12879;BME280;20617;49.476;10.986;2023-09-19T04:21:53;97962.91;;;17.53;100.00
12879;BME280;20617;49.476;10.986;2023-09-19T04:23:59;97962.59;;;17.57;100.00
12879;BME280;20617;49.476;10.986;2023-09-19T04:26:04;97968.59;;;17.71;100.00
12879;BME280;20617;49.476;10.986;2023-09-19T04:28:10;97964.22;;;17.82;100.00
12879;BME280;20617;49.476;10.986;2023-09-19T04:30:15;97967.69;;;17.94;100.00
12879;BME280;20617;49.476;10.986;2023-09-19T04:32:22;97966.28;;;18.01;100.00
12879;BME280;20617;49.476;10.986;2023-09-19T04:34:27;97957.06;;;18.07;100.00
12879;BME280;20617;49.476;10.986;2023-09-19T04:36:32;97962.09;;;18.10;100.00
12879;BME280;20617;49.476;10.986;2023-09-19T04:38:38;97959.09;;;18.15;100.00
12879;BME280;20617;49.476;10.986;2023-09-19T04:40:47;97959.09;;;18.15;100.00
12879;BME280;20617;49.476;10.986;2023-09-19T04:42:53;97963.78;;;18.22;100.00
12879;BME280;20617;49.476;10.986;2023-09-19T04:44:59;97952.66;;;18.30;100.00
12879;BME280;20617;49.476;10.986;2023-09-19T04:47:05;97958.75;;;18.30;100.00
12879;BME280;20617;49.476;10.986;2023-09-19T04:49:13;97961.97;;;18.34;100.00
12879;BME280;20617;49.476;10.986;2023-09-19T04:51:19;97958.84;;;18.40;100.00
12879;BME280;20617;49.476;10.986;2023-09-19T04:53:22;97961.84;;;18.47;100.00
12879;BME280;20617;49.476;10.986;2023-09-19T04:55:29;97961.47;;;18.51;100.00
12879;BME280;20617;49.476;10.986;2023-09-19T04:57:35;97960.75;;;18.49;100.00
12879;BME280;20617;49.476;10.986;2023-09-19T04:59:38;97959.94;;;18.49;100.00
12879;BME280;20617;49.476;10.986;2023-09-19T05:01:43;97969.75;;;18.47;100.00
12879;BME280;20617;49.476;10.986;2023-09-19T05:03:49;97961.25;;;18.43;100.00
12879;BME280;20617;49.476;10.986;2023-09-19T05:05:57;97964.13;;;18.40;100.00
12879;BME280;20617;49.476;10.986;2023-09-19T05:08:03;97969.16;;;18.43;100.00
12879;BME280;20617;49.476;10.986;2023-09-19T05:10:11;97963.63;;;18.46;100.00
12879;BME280;20617;49.476;10.986;2023-09-19T05:12:17;97961.84;;;18.47;100.00
12879;BME280;20617;49.476;10.986;2023-09-19T05:14:22;97967.72;;;18.50;100.00
12879;BME280;20617;49.476;10.986;2023-09-19T05:16:28;97967.97;;;18.47;100.00
12879;BME280;20617;49.476;10.986;2023-09-19T05:18:33;97970.84;;;18.44;100.00
12879;BME280;20617;49.476;10.986;2023-09-19T05:20:36;97975.88;;;18.47;100.00
12879;BME280;20617;49.476;10.986;2023-09-19T05:22:44;97979.34;;;18.48;100.00
12879;BME280;20617;49.476;10.986;2023-09-19T05:24:49;97972.03;;;18.40;100.00
12879;BME280;20617;49.476;10.986;2023-09-19T05:26:54;97983.16;;;18.44;100.00
12879;BME280;20617;49.476;10.986;2023-09-19T05:29:00;97976.13;;;18.44;100.00
12879;BME280;20617;49.476;10.986;2023-09-19T05:31:07;97987.50;;;18.45;100.00
12879;BME280;20617;49.476;10.986;2023-09-19T05:33:12;97979.44;;;18.46;100.00
12879;BME280;20617;49.476;10.986;2023-09-19T05:35:17;97983.53;;;18.50;100.00
12879;BME280;20617;49.476;10.986;2023-09-19T05:37:23;97988.44;;;18.55;100.00
12879;BME280;20617;49.476;10.986;2023-09-19T05:39:31;97991.91;;;18.55;100.00
12879;BME280;20617;49.476;10.986;2023-09-19T05:41:36;97991.56;;;18.60;100.00
12879;BME280;20617;49.476;10.986;2023-09-19T05:43:42;98001.75;;;18.65;100.00
12879;BME280;20617;49.476;10.986;2023-09-19T05:45:47;98006.53;;;18.60;100.00
12879;BME280;20617;49.476;10.986;2023-09-19T05:47:54;98002.59;;;18.65;100.00
12879;BME280;20617;49.476;10.986;2023-09-19T05:50:06;98010.09;;;18.70;100.00
12879;BME280;20617;49.476;10.986;2023-09-19T05:52:14;98010.00;;;18.71;100.00
12879;BME280;20617;49.476;10.986;2023-09-19T05:54:20;98016.47;;;18.78;100.00
12879;BME280;20617;49.476;10.986;2023-09-19T05:56:27;98017.94;;;18.83;100.00
12879;BME280;20617;49.476;10.986;2023-09-19T05:58:33;98006.53;;;18.71;100.00
12879;BME280;20617;49.476;10.986;2023-09-19T06:00:37;98023.44;;;18.68;100.00
12879;BME280;20617;49.476;10.986;2023-09-19T06:02:43;98016.94;;;18.72;100.00
12879;BME280;20617;49.476;10.986;2023-09-19T06:04:48;98029.28;;;18.72;100.00
12879;BME280;20617;49.476;10.986;2023-09-19T06:06:55;98032.75;;;18.72;100.00
12879;BME280;20617;49.476;10.986;2023-09-19T06:09:01;98029.78;;;18.66;100.00
12879;BME280;20617;49.476;10.986;2023-09-19T06:11:07;98040.56;;;18.63;100.00
12879;BME280;20617;49.476;10.986;2023-09-19T06:13:16;98037.09;;;18.51;100.00
12879;BME280;20617;49.476;10.986;2023-09-19T06:15:21;98036.38;;;18.60;100.00
12879;BME280;20617;49.476;10.986;2023-09-19T06:17:27;98049.06;;;18.55;100.00
12879;BME280;20617;49.476;10.986;2023-09-19T06:19:30;98046.81;;;18.50;100.00
12879;BME280;20617;49.476;10.986;2023-09-19T06:21:35;98049.91;;;18.44;100.00
12879;BME280;20617;49.476;10.986;2023-09-19T06:23:40;98052.66;;;18.43;100.00
12879;BME280;20617;49.476;10.986;2023-09-19T06:25:45;98051.44;;;18.47;100.00
12879;BME280;20617;49.476;10.986;2023-09-19T06:27:48;98054.81;;;18.49;100.00
12879;BME280;20617;49.476;10.986;2023-09-19T06:29:56;98055.88;;;18.35;100.00
12879;BME280;20617;49.476;10.986;2023-09-19T06:32:02;98060.94;;;18.27;100.00
12879;BME280;20617;49.476;10.986;2023-09-19T06:34:12;98059.19;;;18.03;100.00
12879;BME280;20617;49.476;10.986;2023-09-19T06:36:16;98066.97;;;18.05;100.00
12879;BME280;20617;49.476;10.986;2023-09-19T06:38:21;98066.47;;;18.00;100.00
12879;BME280;20617;49.476;10.986;2023-09-19T06:40:26;98068.16;;;18.01;100.00
12879;BME280;20617;49.476;10.986;2023-09-19T06:42:32;98064.56;;;18.02;100.00
12879;BME280;20617;49.476;10.986;2023-09-19T06:44:39;98071.78;;;18.11;100.00
12879;BME280;20617;49.476;10.986;2023-09-19T06:46:46;98067.75;;;18.18;100.00
12879;BME280;20617;49.476;10.986;2023-09-19T06:48:53;98068.06;;;18.14;100.00
12879;BME280;20617;49.476;10.986;2023-09-19T06:50:58;98071.41;;;18.04;100.00
12879;BME280;20617;49.476;10.986;2023-09-19T06:53:06;98059.81;;;18.07;100.00
12879;BME280;20617;49.476;10.986;2023-09-19T06:55:11;98071.53;;;18.14;100.00
12879;BME280;20617;49.476;10.986;2023-09-19T06:57:15;98071.44;;;18.16;100.00
12879;BME280;20617;49.476;10.986;2023-09-19T06:59:20;98058.50;;;18.13;100.00
12879;BME280;20617;49.476;10.986;2023-09-19T07:01:25;98066.97;;;18.05;100.00
12879;BME280;20617;49.476;10.986;2023-09-19T07:03:33;98059.78;;;17.96;100.00
12879;BME280;20617;49.476;10.986;2023-09-19T07:05:39;98059.81;;;18.07;100.00
12879;BME280;20617;49.476;10.986;2023-09-19T07:07:45;98068.16;;;18.12;100.00
12879;BME280;20617;49.476;10.986;2023-09-19T07:09:49;98068.81;;;18.16;100.00
12879;BME280;20617;49.476;10.986;2023-09-19T07:11:57;98063.78;;;18.24;100.00
12879;BME280;20617;49.476;10.986;2023-09-19T07:14:07;98063.78;;;18.35;100.00
12879;BME280;20617;49.476;10.986;2023-09-19T07:16:13;98059.25;;;18.48;100.00
12879;BME280;20617;49.476;10.986;2023-09-19T07:18:29;98071.63;;;18.59;100.00
12879;BME280;20617;49.476;10.986;2023-09-19T07:20:37;98061.41;;;18.43;100.00
12879;BME280;20617;49.476;10.986;2023-09-19T07:22:47;98060.06;;;18.38;100.00
12879;BME280;20617;49.476;10.986;2023-09-19T07:24:53;98062.00;;;18.47;100.00
12879;BME280;20617;49.476;10.986;2023-09-19T07:26:58;98057.22;;;18.52;100.00
12879;BME280;20617;49.476;10.986;2023-09-19T07:29:07;98057.34;;;18.50;100.00
12879;BME280;20617;49.476;10.986;2023-09-19T07:31:12;98062.00;;;18.47;100.00
12879;BME280;20617;49.476;10.986;2023-09-19T07:33:17;98065.81;;;18.31;100.00
12879;BME280;20617;49.476;10.986;2023-09-19T07:35:22;98066.19;;;18.38;100.00
12879;BME280;20617;49.476;10.986;2023-09-19T07:37:31;98058.53;;;18.46;100.00
12879;BME280;20617;49.476;10.986;2023-09-19T07:39:38;98068.59;;;18.41;100.00
12879;BME280;20617;49.476;10.986;2023-09-19T07:41:44;98067.28;;;18.36;100.00
12879;BME280;20617;49.476;10.986;2023-09-19T07:43:51;98070.63;;;18.49;100.00
12879;BME280;20617;49.476;10.986;2023-09-19T07:45:56;98077.72;;;18.60;100.00
12879;BME280;20617;49.476;10.986;2023-09-19T07:48:03;98075.34;;;18.68;100.00
12879;BME280;20617;49.476;10.986;2023-09-19T07:50:16;98065.38;;;18.71;100.00
12879;BME280;20617;49.476;10.986;2023-09-19T07:52:21;98061.78;;;18.72;100.00
12879;BME280;20617;49.476;10.986;2023-09-19T07:54:29;98072.00;;;18.88;100.00
12879;BME280;20617;49.476;10.986;2023-09-19T07:56:40;98066.47;;;18.91;100.00
12879;BME280;20617;49.476;10.986;2023-09-19T07:58:45;98062.78;;;18.83;100.00
12879;BME280;20617;49.476;10.986;2023-09-19T08:00:50;98069.47;;;18.87;100.00
12879;BME280;20617;49.476;10.986;2023-09-19T08:02:55;98069.56;;;18.96;100.00
12879;BME280;20617;49.476;10.986;2023-09-19T08:05:10;98079.66;;;19.03;100.00
12879;BME280;20617;49.476;10.986;2023-09-19T08:07:17;98081.31;;;19.04;100.00
12879;BME280;20617;49.476;10.986;2023-09-19T08:09:25;98080.00;;;19.09;100.00
12879;BME280;20617;49.476;10.986;2023-09-19T08:11:37;98083.22;;;19.13;100.00
12879;BME280;20617;49.476;10.986;2023-09-19T08:13:42;98098.59;;;18.96;100.00
12879;BME280;20617;49.476;10.986;2023-09-19T08:15:51;98090.19;;;18.69;100.00
12879;BME280;20617;49.476;10.986;2023-09-19T08:17:56;98101.25;;;18.74;100.00
12879;BME280;20617;49.476;10.986;2023-09-19T08:20:02;98092.84;;;18.80;100.00
12879;BME280;20617;49.476;10.986;2023-09-19T08:22:08;98094.53;;;18.92;100.00
12879;BME280;20617;49.476;10.986;2023-09-19T08:24:13;98092.47;;;18.96;100.00
12879;BME280;20617;49.476;10.986;2023-09-19T08:26:18;98102.91;;;18.97;100.00
12879;BME280;20617;49.476;10.986;2023-09-19T08:28:26;98107.81;;;19.02;100.00
12879;BME280;20617;49.476;10.986;2023-09-19T08:30:31;98104.94;;;19.05;100.00
12879;BME280;20617;49.476;10.986;2023-09-19T08:32:36;98101.94;;;18.98;100.00
12879;BME280;20617;49.476;10.986;2023-09-19T08:34:44;98111.91;;;19.06;100.00
12879;BME280;20617;49.476;10.986;2023-09-19T08:36:50;98112.72;;;19.18;100.00
12879;BME280;20617;49.476;10.986;2023-09-19T08:38:58;98107.56;;;19.28;100.00
12879;BME280;20617;49.476;10.986;2023-09-19T08:41:07;98105.13;;;19.47;100.00
12879;BME280;20617;49.476;10.986;2023-09-19T08:43:13;98099.09;;;19.56;100.00
12879;BME280;20617;49.476;10.986;2023-09-19T08:45:21;98098.09;;;19.68;100.00
12879;BME280;20617;49.476;10.986;2023-09-19T08:47:34;98105.22;;;19.89;100.00
12879;BME280;20617;49.476;10.986;2023-09-19T08:49:51;98108.41;;;20.04;100.00
12879;BME280;20617;49.476;10.986;2023-09-19T08:52:04;98115.69;;;20.11;100.00
12879;BME280;20617;49.476;10.986;2023-09-19T08:54:16;98111.72;;;20.17;100.00
12879;BME280;20617;49.476;10.986;2023-09-19T08:56:32;98116.28;;;20.36;100.00
12879;BME280;20617;49.476;10.986;2023-09-19T08:58:45;98120.09;;;20.43;100.00
12879;BME280;20617;49.476;10.986;2023-09-19T09:00:54;98121.59;;;20.57;100.00
12879;BME280;20617;49.476;10.986;2023-09-19T09:03:01;98119.38;;;20.62;100.00
12879;BME280;20617;49.476;10.986;2023-09-19T09:05:09;98126.66;;;20.70;100.00
12879;BME280;20617;49.476;10.986;2023-09-19T09:07:14;98128.69;;;20.56;100.00
12879;BME280;20617;49.476;10.986;2023-09-19T09:09:21;98134.59;;;20.49;100.00
12879;BME280;20617;49.476;10.986;2023-09-19T09:11:26;98136.38;;;20.27;100.00
12879;BME280;20617;49.476;10.986;2023-09-19T09:13:30;98140.22;;;20.13;100.00
12879;BME280;20617;49.476;10.986;2023-09-19T09:15:36;98135.53;;;20.06;100.00
12879;BME280;20617;49.476;10.986;2023-09-19T09:17:46;98136.00;;;19.90;100.00
12879;BME280;20617;49.476;10.986;2023-09-19T09:19:52;98139.97;;;19.84;100.00
12879;BME280;20617;49.476;10.986;2023-09-19T09:22:06;98133.38;;;19.79;100.00
12879;BME280;20617;49.476;10.986;2023-09-19T09:24:35;98137.09;;;19.76;100.00
12879;BME280;20617;49.476;10.986;2023-09-19T09:26:42;98143.00;;;19.57;100.00
12879;BME280;20617;49.476;10.986;2023-09-19T09:28:50;98150.38;;;19.31;100.00
12879;BME280;20617;49.476;10.986;2023-09-19T09:30:57;98149.19;;;19.35;100.00
12879;BME280;20617;49.476;10.986;2023-09-19T09:33:10;98151.59;;;19.27;100.00
12879;BME280;20617;49.476;10.986;2023-09-19T09:35:17;98152.66;;;19.25;100.00
12879;BME280;20617;49.476;10.986;2023-09-19T09:37:24;98152.31;;;19.29;100.00
12879;BME280;20617;49.476;10.986;2023-09-19T09:39:30;98145.94;;;19.32;100.00
12879;BME280;20617;49.476;10.986;2023-09-19T09:41:36;98144.72;;;19.47;100.00
12879;BME280;20617;49.476;10.986;2023-09-19T09:43:42;98149.16;;;19.58;100.00
12879;BME280;20617;49.476;10.986;2023-09-19T09:46:06;98151.91;;;19.56;100.00
12879;BME280;20617;49.476;10.986;2023-09-19T09:48:26;98150.22;;;19.55;100.00
12879;BME280;20617;49.476;10.986;2023-09-19T09:50:35;98153.94;;;19.64;100.00
12879;BME280;20617;49.476;10.986;2023-09-19T09:52:46;98155.13;;;19.71;100.00
12879;BME280;20617;49.476;10.986;2023-09-19T09:55:02;98143.66;;;19.93;100.00
12879;BME280;20617;49.476;10.986;2023-09-19T09:57:10;98137.19;;;19.86;100.00
12879;BME280;20617;49.476;10.986;2023-09-19T09:59:19;98149.91;;;19.81;100.00
12879;BME280;20617;49.476;10.986;2023-09-19T10:01:26;98140.47;;;19.78;100.00
12879;BME280;20617;49.476;10.986;2023-09-19T10:03:37;98143.91;;;19.90;100.00
12879;BME280;20617;49.476;10.986;2023-09-19T10:05:53;98139.59;;;20.10;100.00
12879;BME280;20617;49.476;10.986;2023-09-19T10:08:11;98132.34;;;20.23;100.00
12879;BME280;20617;49.476;10.986;2023-09-19T10:10:31;98141.75;;;20.37;100.00
12879;BME280;20617;49.476;10.986;2023-09-19T10:12:58;98142.84;;;20.34;100.00
12879;BME280;20617;49.476;10.986;2023-09-19T10:15:07;98137.00;;;20.31;100.00
12879;BME280;20617;49.476;10.986;2023-09-19T10:17:14;98138.84;;;20.19;100.00
12879;BME280;20617;49.476;10.986;2023-09-19T10:19:30;98133.75;;;20.06;100.00
12879;BME280;20617;49.476;10.986;2023-09-19T10:21:36;98135.09;;;20.01;100.00
12879;BME280;20617;49.476;10.986;2023-09-19T10:23:42;98135.34;;;20.19;100.00
12879;BME280;20617;49.476;10.986;2023-09-19T10:25:48;98139.19;;;20.26;100.00
12879;BME280;20617;49.476;10.986;2023-09-19T10:27:55;98131.44;;;20.34;100.00
12879;BME280;20617;49.476;10.986;2023-09-19T10:30:05;98149.19;;;20.22;100.00
12879;BME280;20617;49.476;10.986;2023-09-19T10:32:14;98143.22;;;20.09;100.00
12879;BME280;20617;49.476;10.986;2023-09-19T10:34:22;98138.72;;;20.21;100.00
12879;BME280;20617;49.476;10.986;2023-09-19T10:36:35;98138.50;;;20.12;100.00
12879;BME280;20617;49.476;10.986;2023-09-19T10:38:43;98134.66;;;20.17;100.00
12879;BME280;20617;49.476;10.986;2023-09-19T10:40:51;98137.94;;;20.30;100.00
12879;BME280;20617;49.476;10.986;2023-09-19T10:43:01;98139.75;;;20.29;100.00
12879;BME280;20617;49.476;10.986;2023-09-19T10:45:09;98140.22;;;20.34;100.00
12879;BME280;20617;49.476;10.986;2023-09-19T10:47:17;98141.69;;;20.27;100.00
12879;BME280;20617;49.476;10.986;2023-09-19T10:49:26;98146.00;;;20.49;100.00
12879;BME280;20617;49.476;10.986;2023-09-19T10:51:41;98142.28;;;20.73;100.00
12879;BME280;20617;49.476;10.986;2023-09-19T10:53:50;98138.75;;;20.93;100.00
12879;BME280;20617;49.476;10.986;2023-09-19T10:55:59;98130.59;;;21.06;100.00
12879;BME280;20617;49.476;10.986;2023-09-19T10:58:11;98132.72;;;21.12;100.00
12879;BME280;20617;49.476;10.986;2023-09-19T11:00:21;98138.56;;;21.06;100.00
12879;BME280;20617;49.476;10.986;2023-09-19T11:02:26;98143.97;;;21.05;100.00